sensor_id;sensor_type;location;lat;lon;timestamp;pressure;altitude;pressure_sealevel;temperature;humidity
77526;BME280;66627;29.424;-98.496;2023-08-08T00:02:05;98570.25;;;39.62;15.91
77526;BME280;66627;29.424;-98.496;2023-08-08T00:04:30;98567.70;;;40.05;16.12
77526;BME280;66627;29.424;-98.496;2023-08-08T00:06:56;98566.65;;;41.06;15.33
77526;BME280;66627;29.424;-98.496;2023-08-08T00:09:21;98565.94;;;40.06;15.73
77526;BME280;66627;29.424;-98.496;2023-08-08T00:11:46;98564.85;;;39.37;15.74
77526;BME280;66627;29.424;-98.496;2023-08-08T00:14:12;98567.00;;;39.71;15.84
77526;BME280;66627;29.424;-98.496;2023-08-08T00:16:37;98566.52;;;39.73;15.90
77526;BME280;66627;29.424;-98.496;2023-08-08T00:19:02;98565.39;;;39.32;15.95
77526;BME280;66627;29.424;-98.496;2023-08-08T00:21:27;98563.75;;;39.64;15.60
77526;BME280;66627;29.424;-98.496;2023-08-08T00:23:52;98563.55;;;39.51;16.02
77526;BME280;66627;29.424;-98.496;2023-08-08T00:26:17;98559.76;;;39.20;16.10
77526;BME280;66627;29.424;-98.496;2023-08-08T00:28:43;98557.66;;;39.24;15.79
77526;BME280;66627;29.424;-98.496;2023-08-08T00:31:08;98554.76;;;39.16;15.79
77526;BME280;66627;29.424;-98.496;2023-08-08T00:33:33;98555.97;;;38.99;16.24
77526;BME280;66627;29.424;-98.496;2023-08-08T00:35:58;98553.02;;;40.09;15.68
77526;BME280;66627;29.424;-98.496;2023-08-08T00:38:23;98554.90;;;39.44;15.80
77526;BME280;66627;29.424;-98.496;2023-08-08T00:40:53;98557.22;;;39.65;16.37
77526;BME280;66627;29.424;-98.496;2023-08-08T00:43:13;98556.61;;;39.90;16.09
77526;BME280;66627;29.424;-98.496;2023-08-08T00:45:39;98557.72;;;39.31;16.90
77526;BME280;66627;29.424;-98.496;2023-08-08T00:48:05;98556.61;;;39.85;16.57
77526;BME280;66627;29.424;-98.496;2023-08-08T00:50:29;98555.12;;;39.49;16.61
77526;BME280;66627;29.424;-98.496;2023-08-08T00:52:54;98553.20;;;39.26;16.87
77526;BME280;66627;29.424;-98.496;2023-08-08T00:55:20;98552.10;;;39.23;16.82
77526;BME280;66627;29.424;-98.496;2023-08-08T00:57:45;98548.52;;;39.12;16.93
77526;BME280;66627;29.424;-98.496;2023-08-08T01:00:10;98549.90;;;39.77;16.65
77526;BME280;66627;29.424;-98.496;2023-08-08T01:02:35;98548.93;;;39.22;17.01
77526;BME280;66627;29.424;-98.496;2023-08-08T01:05:01;98551.36;;;39.33;16.71
77526;BME280;66627;29.424;-98.496;2023-08-08T01:07:31;98548.33;;;38.94;17.17
77526;BME280;66627;29.424;-98.496;2023-08-08T01:09:55;98549.94;;;38.92;17.30
77526;BME280;66627;29.424;-98.496;2023-08-08T01:12:16;98554.51;;;38.88;18.28
77526;BME280;66627;29.424;-98.496;2023-08-08T01:14:43;98556.53;;;38.67;19.11
77526;BME280;66627;29.424;-98.496;2023-08-08T01:17:06;98564.13;;;38.26;19.73
77526;BME280;66627;29.424;-98.496;2023-08-08T01:19:32;98563.14;;;37.84;21.02
77526;BME280;66627;29.424;-98.496;2023-08-08T01:22:01;98565.11;;;37.67;22.73
77526;BME280;66627;29.424;-98.496;2023-08-08T01:24:22;98573.53;;;36.55;25.33
77526;BME280;66627;29.424;-98.496;2023-08-08T01:26:47;98576.02;;;36.88;25.27
77526;BME280;66627;29.424;-98.496;2023-08-08T01:29:12;98584.66;;;36.75;25.88
77526;BME280;66627;29.424;-98.496;2023-08-08T01:31:37;98586.59;;;36.30;26.90
77526;BME280;66627;29.424;-98.496;2023-08-08T01:34:02;98593.92;;;35.82;27.30
77526;BME280;66627;29.424;-98.496;2023-08-08T01:36:31;98593.94;;;36.67;27.27
77526;BME280;66627;29.424;-98.496;2023-08-08T01:38:54;98600.88;;;36.33;27.93
77526;BME280;66627;29.424;-98.496;2023-08-08T01:41:18;98608.68;;;35.61;28.87
77526;BME280;66627;29.424;-98.496;2023-08-08T01:43:44;98620.23;;;35.64;29.30
77526;BME280;66627;29.424;-98.496;2023-08-08T01:46:09;98620.98;;;35.37;30.26
77526;BME280;66627;29.424;-98.496;2023-08-08T01:48:33;98629.09;;;34.84;30.87
77526;BME280;66627;29.424;-98.496;2023-08-08T01:50:58;98627.06;;;34.61;31.37
77526;BME280;66627;29.424;-98.496;2023-08-08T01:53:24;98627.46;;;34.74;31.53
77526;BME280;66627;29.424;-98.496;2023-08-08T01:55:50;98634.33;;;35.40;31.49
77526;BME280;66627;29.424;-98.496;2023-08-08T01:58:14;98645.03;;;34.86;31.70
77526;BME280;66627;29.424;-98.496;2023-08-08T02:00:40;98640.20;;;34.18;32.69
77526;BME280;66627;29.424;-98.496;2023-08-08T02:03:05;98647.27;;;34.07;32.90
77526;BME280;66627;29.424;-98.496;2023-08-08T02:05:30;98653.33;;;34.46;33.11
77526;BME280;66627;29.424;-98.496;2023-08-08T02:07:55;98655.67;;;35.08;31.98
77526;BME280;66627;29.424;-98.496;2023-08-08T02:10:20;98661.33;;;35.00;32.13
77526;BME280;66627;29.424;-98.496;2023-08-08T02:12:46;98656.59;;;34.27;32.64
77526;BME280;66627;29.424;-98.496;2023-08-08T02:15:10;98662.83;;;34.20;32.89
77526;BME280;66627;29.424;-98.496;2023-08-08T02:17:37;98658.99;;;33.69;33.63
77526;BME280;66627;29.424;-98.496;2023-08-08T02:20:01;98666.24;;;34.67;33.03
77526;BME280;66627;29.424;-98.496;2023-08-08T02:22:27;98669.86;;;33.79;33.64
77526;BME280;66627;29.424;-98.496;2023-08-08T02:24:52;98667.18;;;33.62;34.38
77526;BME280;66627;29.424;-98.496;2023-08-08T02:27:17;98671.79;;;34.55;33.23
77526;BME280;66627;29.424;-98.496;2023-08-08T02:29:43;98668.07;;;33.69;34.24
77526;BME280;66627;29.424;-98.496;2023-08-08T02:32:09;98674.02;;;33.53;34.36
77526;BME280;66627;29.424;-98.496;2023-08-08T02:34:34;98668.25;;;33.41;34.66
77526;BME280;66627;29.424;-98.496;2023-08-08T02:36:59;98673.83;;;33.61;34.80
77526;BME280;66627;29.424;-98.496;2023-08-08T02:39:25;98675.62;;;34.15;34.17
77526;BME280;66627;29.424;-98.496;2023-08-08T02:41:50;98677.65;;;33.86;34.30
77526;BME280;66627;29.424;-98.496;2023-08-08T02:44:15;98680.30;;;34.13;33.88
77526;BME280;66627;29.424;-98.496;2023-08-08T02:46:41;98683.91;;;34.05;34.20
77526;BME280;66627;29.424;-98.496;2023-08-08T02:49:06;98678.36;;;33.69;34.43
77526;BME280;66627;29.424;-98.496;2023-08-08T02:51:32;98686.35;;;33.53;34.85
77526;BME280;66627;29.424;-98.496;2023-08-08T02:53:56;98694.02;;;33.23;35.28
77526;BME280;66627;29.424;-98.496;2023-08-08T02:56:22;98693.05;;;33.18;35.42
77526;BME280;66627;29.424;-98.496;2023-08-08T02:58:47;98700.05;;;33.00;36.11
77526;BME280;66627;29.424;-98.496;2023-08-08T03:01:13;98702.93;;;32.96;36.27
77526;BME280;66627;29.424;-98.496;2023-08-08T03:03:38;98711.21;;;33.06;36.31
77526;BME280;66627;29.424;-98.496;2023-08-08T03:06:04;98711.59;;;32.97;36.27
77526;BME280;66627;29.424;-98.496;2023-08-08T03:08:29;98717.71;;;32.81;36.59
77526;BME280;66627;29.424;-98.496;2023-08-08T03:10:54;98722.02;;;32.31;37.50
77526;BME280;66627;29.424;-98.496;2023-08-08T03:13:20;98727.36;;;32.40;37.57
77526;BME280;66627;29.424;-98.496;2023-08-08T03:15:45;98730.90;;;32.43;38.01
77526;BME280;66627;29.424;-98.496;2023-08-08T03:18:10;98736.15;;;32.45;38.14
77526;BME280;66627;29.424;-98.496;2023-08-08T03:20:36;98741.58;;;32.11;38.48
77526;BME280;66627;29.424;-98.496;2023-08-08T03:23:01;98743.08;;;32.45;38.28
77526;BME280;66627;29.424;-98.496;2023-08-08T03:25:26;98749.42;;;32.37;38.31
77526;BME280;66627;29.424;-98.496;2023-08-08T03:27:52;98753.63;;;32.25;38.52
77526;BME280;66627;29.424;-98.496;2023-08-08T03:30:17;98751.39;;;31.86;39.21
77526;BME280;66627;29.424;-98.496;2023-08-08T03:32:43;98756.29;;;31.85;39.16
77526;BME280;66627;29.424;-98.496;2023-08-08T03:35:09;98765.59;;;31.38;40.48
77526;BME280;66627;29.424;-98.496;2023-08-08T03:37:34;98765.11;;;31.69;40.60
77526;BME280;66627;29.424;-98.496;2023-08-08T03:40:00;98772.98;;;32.10;39.69
77526;BME280;66627;29.424;-98.496;2023-08-08T03:42:25;98779.95;;;32.89;38.60
77526;BME280;66627;29.424;-98.496;2023-08-08T03:44:50;98787.51;;;32.25;39.99
77526;BME280;66627;29.424;-98.496;2023-08-08T03:47:16;98787.73;;;31.75;40.18
77526;BME280;66627;29.424;-98.496;2023-08-08T03:49:41;98785.89;;;32.11;40.20
77526;BME280;66627;29.424;-98.496;2023-08-08T03:52:07;98786.15;;;32.15;40.58
77526;BME280;66627;29.424;-98.496;2023-08-08T03:54:31;98792.86;;;31.86;40.97
77526;BME280;66627;29.424;-98.496;2023-08-08T03:56:56;98802.35;;;31.75;41.07
77526;BME280;66627;29.424;-98.496;2023-08-08T03:59:22;98809.70;;;31.78;41.15
77526;BME280;66627;29.424;-98.496;2023-08-08T04:01:47;98816.38;;;31.82;41.08
77526;BME280;66627;29.424;-98.496;2023-08-08T04:04:13;98818.46;;;31.69;41.23
77526;BME280;66627;29.424;-98.496;2023-08-08T04:06:38;98818.38;;;31.88;40.96
77526;BME280;66627;29.424;-98.496;2023-08-08T04:09:04;98819.49;;;31.26;41.55
77526;BME280;66627;29.424;-98.496;2023-08-08T04:11:29;98822.56;;;31.60;41.54
77526;BME280;66627;29.424;-98.496;2023-08-08T04:13:59;98821.55;;;31.13;42.15
77526;BME280;66627;29.424;-98.496;2023-08-08T04:16:20;98825.11;;;31.10;42.24
77526;BME280;66627;29.424;-98.496;2023-08-08T04:18:46;98828.27;;;31.47;41.62
77526;BME280;66627;29.424;-98.496;2023-08-08T04:21:11;98831.16;;;31.19;41.49
77526;BME280;66627;29.424;-98.496;2023-08-08T04:23:36;98831.77;;;31.77;40.98
77526;BME280;66627;29.424;-98.496;2023-08-08T04:26:02;98830.65;;;31.08;42.09
77526;BME280;66627;29.424;-98.496;2023-08-08T04:28:26;98833.66;;;31.24;41.69
77526;BME280;66627;29.424;-98.496;2023-08-08T04:30:51;98835.54;;;30.91;42.67
77526;BME280;66627;29.424;-98.496;2023-08-08T04:33:17;98834.25;;;30.99;42.57
77526;BME280;66627;29.424;-98.496;2023-08-08T04:35:43;98830.41;;;30.90;42.69
77526;BME280;66627;29.424;-98.496;2023-08-08T04:38:08;98827.17;;;30.55;43.29
77526;BME280;66627;29.424;-98.496;2023-08-08T04:40:34;98825.88;;;30.65;43.36
77526;BME280;66627;29.424;-98.496;2023-08-08T04:42:59;98829.23;;;31.10;43.07
77526;BME280;66627;29.424;-98.496;2023-08-08T04:45:26;98831.85;;;30.25;44.64
77526;BME280;66627;29.424;-98.496;2023-08-08T04:47:50;98831.90;;;30.50;44.00
77526;BME280;66627;29.424;-98.496;2023-08-08T04:50:15;98839.65;;;31.16;43.20
77526;BME280;66627;29.424;-98.496;2023-08-08T04:52:41;98841.16;;;31.15;43.29
77526;BME280;66627;29.424;-98.496;2023-08-08T04:55:12;98843.74;;;30.80;43.38
77526;BME280;66627;29.424;-98.496;2023-08-08T04:57:32;98851.25;;;30.22;44.56
77526;BME280;66627;29.424;-98.496;2023-08-08T04:59:58;98852.22;;;29.76;45.57
77526;BME280;66627;29.424;-98.496;2023-08-08T05:02:23;98852.75;;;30.38;44.68
77526;BME280;66627;29.424;-98.496;2023-08-08T05:04:48;98846.64;;;30.88;44.32
77526;BME280;66627;29.424;-98.496;2023-08-08T05:07:14;98849.77;;;30.63;44.70
77526;BME280;66627;29.424;-98.496;2023-08-08T05:09:40;98846.52;;;30.40;45.35
77526;BME280;66627;29.424;-98.496;2023-08-08T05:12:06;98848.61;;;30.21;45.65
77526;BME280;66627;29.424;-98.496;2023-08-08T05:14:31;98848.97;;;30.29;45.69
77526;BME280;66627;29.424;-98.496;2023-08-08T05:16:57;98852.13;;;29.98;46.29
77526;BME280;66627;29.424;-98.496;2023-08-08T05:19:23;98852.65;;;29.85;46.70
77526;BME280;66627;29.424;-98.496;2023-08-08T05:21:48;98858.92;;;30.41;45.69
77526;BME280;66627;29.424;-98.496;2023-08-08T05:24:14;98857.59;;;29.80;46.70
77526;BME280;66627;29.424;-98.496;2023-08-08T05:26:39;98865.32;;;30.07;46.38
77526;BME280;66627;29.424;-98.496;2023-08-08T05:29:05;98873.24;;;30.49;45.79
77526;BME280;66627;29.424;-98.496;2023-08-08T05:31:29;98876.54;;;30.38;46.00
77526;BME280;66627;29.424;-98.496;2023-08-08T05:33:55;98881.49;;;30.15;46.63
77526;BME280;66627;29.424;-98.496;2023-08-08T05:36:20;98882.65;;;29.80;47.35
77526;BME280;66627;29.424;-98.496;2023-08-08T05:38:46;98886.17;;;30.31;46.44
77526;BME280;66627;29.424;-98.496;2023-08-08T05:41:12;98895.01;;;30.74;45.82
77526;BME280;66627;29.424;-98.496;2023-08-08T05:43:36;98897.13;;;30.30;46.55
77526;BME280;66627;29.424;-98.496;2023-08-08T05:46:02;98896.41;;;29.93;47.33
77526;BME280;66627;29.424;-98.496;2023-08-08T05:48:27;98901.06;;;30.17;46.91
77526;BME280;66627;29.424;-98.496;2023-08-08T05:50:52;98901.74;;;30.19;46.33
77526;BME280;66627;29.424;-98.496;2023-08-08T05:53:18;98906.20;;;30.60;46.03
77526;BME280;66627;29.424;-98.496;2023-08-08T05:55:43;98904.65;;;30.57;46.08
77526;BME280;66627;29.424;-98.496;2023-08-08T05:58:08;98902.51;;;30.11;46.91
77526;BME280;66627;29.424;-98.496;2023-08-08T06:00:34;98904.87;;;30.52;46.62
77526;BME280;66627;29.424;-98.496;2023-08-08T06:02:59;98905.79;;;30.41;46.27
77526;BME280;66627;29.424;-98.496;2023-08-08T06:05:24;98908.37;;;30.24;46.55
77526;BME280;66627;29.424;-98.496;2023-08-08T06:07:50;98908.66;;;29.66;47.46
77526;BME280;66627;29.424;-98.496;2023-08-08T06:10:15;98906.87;;;29.70;47.43
77526;BME280;66627;29.424;-98.496;2023-08-08T06:12:41;98904.22;;;30.13;46.65
77526;BME280;66627;29.424;-98.496;2023-08-08T06:15:07;98905.99;;;29.53;47.69
77526;BME280;66627;29.424;-98.496;2023-08-08T06:17:32;98907.52;;;30.18;46.96
77526;BME280;66627;29.424;-98.496;2023-08-08T06:19:57;98905.74;;;29.53;47.69
77526;BME280;66627;29.424;-98.496;2023-08-08T06:22:22;98904.95;;;29.64;47.76
77526;BME280;66627;29.424;-98.496;2023-08-08T06:24:48;98912.28;;;30.25;46.34
77526;BME280;66627;29.424;-98.496;2023-08-08T06:27:13;98916.71;;;30.03;46.82
77526;BME280;66627;29.424;-98.496;2023-08-08T06:29:38;98919.67;;;29.65;47.31
77526;BME280;66627;29.424;-98.496;2023-08-08T06:32:04;98918.84;;;29.85;47.59
77526;BME280;66627;29.424;-98.496;2023-08-08T06:34:28;98915.64;;;30.22;47.41
77526;BME280;66627;29.424;-98.496;2023-08-08T06:36:54;98918.58;;;29.88;47.03
77526;BME280;66627;29.424;-98.496;2023-08-08T06:39:19;98917.75;;;29.71;47.36
77526;BME280;66627;29.424;-98.496;2023-08-08T06:41:45;98912.87;;;29.73;48.31
77526;BME280;66627;29.424;-98.496;2023-08-08T06:44:11;98914.15;;;30.04;47.95
77526;BME280;66627;29.424;-98.496;2023-08-08T06:46:36;98912.08;;;29.65;48.20
77526;BME280;66627;29.424;-98.496;2023-08-08T06:49:01;98914.13;;;29.20;49.22
77526;BME280;66627;29.424;-98.496;2023-08-08T06:51:26;98913.35;;;28.89;49.76
77526;BME280;66627;29.424;-98.496;2023-08-08T06:53:52;98909.71;;;29.56;48.65
77526;BME280;66627;29.424;-98.496;2023-08-08T06:56:18;98914.15;;;29.46;48.85
77526;BME280;66627;29.424;-98.496;2023-08-08T06:58:43;98919.96;;;29.00;49.45
77526;BME280;66627;29.424;-98.496;2023-08-08T07:01:08;98915.55;;;29.60;48.87
77526;BME280;66627;29.424;-98.496;2023-08-08T07:03:34;98921.96;;;29.23;49.54
77526;BME280;66627;29.424;-98.496;2023-08-08T07:05:59;98918.03;;;29.17;49.09
77526;BME280;66627;29.424;-98.496;2023-08-08T07:08:25;98916.37;;;29.23;49.36
77526;BME280;66627;29.424;-98.496;2023-08-08T07:10:50;98910.23;;;29.67;48.59
77526;BME280;66627;29.424;-98.496;2023-08-08T07:13:16;98916.25;;;29.25;48.81
77526;BME280;66627;29.424;-98.496;2023-08-08T07:15:41;98914.46;;;29.32;49.12
77526;BME280;66627;29.424;-98.496;2023-08-08T07:18:07;98918.98;;;29.97;48.02
77526;BME280;66627;29.424;-98.496;2023-08-08T07:20:32;98918.44;;;29.86;47.95
77526;BME280;66627;29.424;-98.496;2023-08-08T07:22:58;98917.91;;;29.88;47.99
77526;BME280;66627;29.424;-98.496;2023-08-08T07:25:24;98920.95;;;29.15;48.76
77526;BME280;66627;29.424;-98.496;2023-08-08T07:27:49;98920.65;;;29.87;47.84
77526;BME280;66627;29.424;-98.496;2023-08-08T07:30:14;98925.13;;;28.97;49.50
77526;BME280;66627;29.424;-98.496;2023-08-08T07:32:40;98926.08;;;29.22;49.06
77526;BME280;66627;29.424;-98.496;2023-08-08T07:35:06;98924.06;;;28.76;49.79
77526;BME280;66627;29.424;-98.496;2023-08-08T07:37:31;98926.84;;;29.56;48.83
77526;BME280;66627;29.424;-98.496;2023-08-08T07:39:56;98927.18;;;29.72;48.55
77526;BME280;66627;29.424;-98.496;2023-08-08T07:42:22;98927.23;;;29.71;48.08
77526;BME280;66627;29.424;-98.496;2023-08-08T07:44:47;98929.35;;;28.96;49.43
77526;BME280;66627;29.424;-98.496;2023-08-08T07:47:13;98928.61;;;29.18;48.61
77526;BME280;66627;29.424;-98.496;2023-08-08T07:49:39;98930.35;;;29.59;48.29
77526;BME280;66627;29.424;-98.496;2023-08-08T07:52:05;98932.36;;;29.91;47.75
77526;BME280;66627;29.424;-98.496;2023-08-08T07:54:30;98938.69;;;29.49;48.07
77526;BME280;66627;29.424;-98.496;2023-08-08T07:56:55;98937.78;;;29.34;48.86
77526;BME280;66627;29.424;-98.496;2023-08-08T07:59:21;98928.09;;;29.93;47.72
77526;BME280;66627;29.424;-98.496;2023-08-08T08:01:46;98931.93;;;29.75;47.98
77526;BME280;66627;29.424;-98.496;2023-08-08T08:04:11;98933.75;;;28.89;49.74
77526;BME280;66627;29.424;-98.496;2023-08-08T08:06:37;98934.38;;;28.95;49.57
77526;BME280;66627;29.424;-98.496;2023-08-08T08:09:02;98936.99;;;28.82;50.36
77526;BME280;66627;29.424;-98.496;2023-08-08T08:11:28;98938.81;;;28.87;49.67
77526;BME280;66627;29.424;-98.496;2023-08-08T08:13:59;98937.99;;;28.63;49.72
77526;BME280;66627;29.424;-98.496;2023-08-08T08:16:19;98940.40;;;29.39;48.88
77526;BME280;66627;29.424;-98.496;2023-08-08T08:18:44;98941.51;;;29.13;49.08
77526;BME280;66627;29.424;-98.496;2023-08-08T08:21:10;98940.82;;;28.99;49.42
77526;BME280;66627;29.424;-98.496;2023-08-08T08:23:35;98941.34;;;29.14;48.75
77526;BME280;66627;29.424;-98.496;2023-08-08T08:26:01;98940.64;;;29.65;48.29
77526;BME280;66627;29.424;-98.496;2023-08-08T08:28:26;98947.18;;;29.06;49.40
77526;BME280;66627;29.424;-98.496;2023-08-08T08:30:52;98948.97;;;29.46;48.56
77526;BME280;66627;29.424;-98.496;2023-08-08T08:33:17;98949.18;;;29.63;48.84
77526;BME280;66627;29.424;-98.496;2023-08-08T08:35:43;98947.94;;;29.49;48.01
77526;BME280;66627;29.424;-98.496;2023-08-08T08:38:08;98947.95;;;28.37;50.72
77526;BME280;66627;29.424;-98.496;2023-08-08T08:40:37;98948.28;;;28.63;50.15
77526;BME280;66627;29.424;-98.496;2023-08-08T08:43:00;98951.84;;;28.76;50.47
77526;BME280;66627;29.424;-98.496;2023-08-08T08:45:25;98948.90;;;28.74;50.09
77526;BME280;66627;29.424;-98.496;2023-08-08T08:47:51;98946.15;;;29.82;48.92
77526;BME280;66627;29.424;-98.496;2023-08-08T08:50:16;98947.19;;;29.25;48.88
77526;BME280;66627;29.424;-98.496;2023-08-08T08:52:41;98944.77;;;29.60;48.72
77526;BME280;66627;29.424;-98.496;2023-08-08T08:55:07;98945.07;;;28.50;50.28
77526;BME280;66627;29.424;-98.496;2023-08-08T08:57:31;98941.63;;;29.32;49.23
77526;BME280;66627;29.424;-98.496;2023-08-08T08:59:57;98943.41;;;28.34;50.04
77526;BME280;66627;29.424;-98.496;2023-08-08T09:02:21;98942.22;;;28.97;49.92
77526;BME280;66627;29.424;-98.496;2023-08-08T09:04:46;98944.89;;;28.29;50.71
77526;BME280;66627;29.424;-98.496;2023-08-08T09:07:12;98940.41;;;29.35;49.20
77526;BME280;66627;29.424;-98.496;2023-08-08T09:09:38;98944.57;;;28.80;50.73
77526;BME280;66627;29.424;-98.496;2023-08-08T09:12:04;98949.78;;;28.23;50.83
77526;BME280;66627;29.424;-98.496;2023-08-08T09:14:28;98954.35;;;28.38;50.96
77526;BME280;66627;29.424;-98.496;2023-08-08T09:16:53;98950.59;;;28.06;51.00
77526;BME280;66627;29.424;-98.496;2023-08-08T09:19:19;98943.79;;;28.86;49.53
77526;BME280;66627;29.424;-98.496;2023-08-08T09:21:44;98944.31;;;28.57;50.73
77526;BME280;66627;29.424;-98.496;2023-08-08T09:24:10;98940.79;;;29.25;49.24
77526;BME280;66627;29.424;-98.496;2023-08-08T09:26:36;98942.56;;;29.68;48.52
77526;BME280;66627;29.424;-98.496;2023-08-08T09:29:01;98942.19;;;29.14;48.79
77526;BME280;66627;29.424;-98.496;2023-08-08T09:31:26;98944.55;;;29.87;48.03
77526;BME280;66627;29.424;-98.496;2023-08-08T09:33:51;98942.62;;;29.28;48.69
77526;BME280;66627;29.424;-98.496;2023-08-08T09:36:17;98941.09;;;29.48;48.69
77526;BME280;66627;29.424;-98.496;2023-08-08T09:38:43;98944.45;;;28.55;49.94
77526;BME280;66627;29.424;-98.496;2023-08-08T09:41:08;98942.64;;;28.14;50.65
77526;BME280;66627;29.424;-98.496;2023-08-08T09:43:35;98941.28;;;29.39;48.94
77526;BME280;66627;29.424;-98.496;2023-08-08T09:46:01;98945.00;;;29.16;49.73
77526;BME280;66627;29.424;-98.496;2023-08-08T09:48:31;98951.05;;;28.11;51.74
77526;BME280;66627;29.424;-98.496;2023-08-08T09:50:51;98956.05;;;28.64;50.90
77526;BME280;66627;29.424;-98.496;2023-08-08T09:53:18;98958.70;;;28.85;50.45
77526;BME280;66627;29.424;-98.496;2023-08-08T09:55:42;98964.41;;;28.88;49.81
77526;BME280;66627;29.424;-98.496;2023-08-08T09:58:07;98967.27;;;27.55;51.82
77526;BME280;66627;29.424;-98.496;2023-08-08T10:00:33;98963.52;;;29.19;49.82
77526;BME280;66627;29.424;-98.496;2023-08-08T10:02:59;98957.64;;;28.51;50.58
77526;BME280;66627;29.424;-98.496;2023-08-08T10:05:25;98956.81;;;27.94;51.54
77526;BME280;66627;29.424;-98.496;2023-08-08T10:07:50;98955.61;;;28.21;51.55
77526;BME280;66627;29.424;-98.496;2023-08-08T10:10:17;98958.25;;;28.08;51.91
77526;BME280;66627;29.424;-98.496;2023-08-08T10:12:41;98959.07;;;28.43;51.17
77526;BME280;66627;29.424;-98.496;2023-08-08T10:15:08;98955.38;;;28.81;50.47
77526;BME280;66627;29.424;-98.496;2023-08-08T10:17:36;98950.28;;;29.12;49.42
77526;BME280;66627;29.424;-98.496;2023-08-08T10:19:57;98956.93;;;28.09;50.88
77526;BME280;66627;29.424;-98.496;2023-08-08T10:22:24;98960.79;;;27.69;52.25
77526;BME280;66627;29.424;-98.496;2023-08-08T10:24:52;98963.62;;;27.89;52.34
77526;BME280;66627;29.424;-98.496;2023-08-08T10:27:14;98969.74;;;27.21;53.42
77526;BME280;66627;29.424;-98.496;2023-08-08T10:29:39;98970.22;;;27.32;53.89
77526;BME280;66627;29.424;-98.496;2023-08-08T10:32:06;98978.63;;;26.85;54.79
77526;BME280;66627;29.424;-98.496;2023-08-08T10:34:37;98976.49;;;27.92;53.19
77526;BME280;66627;29.424;-98.496;2023-08-08T10:36:58;98975.17;;;27.30;53.84
77526;BME280;66627;29.424;-98.496;2023-08-08T10:39:21;98975.37;;;27.17;54.43
77526;BME280;66627;29.424;-98.496;2023-08-08T10:41:47;98976.10;;;28.06;52.39
77526;BME280;66627;29.424;-98.496;2023-08-08T10:44:11;98976.42;;;28.33;51.85
77526;BME280;66627;29.424;-98.496;2023-08-08T10:46:39;98974.97;;;27.75;52.76
77526;BME280;66627;29.424;-98.496;2023-08-08T10:49:02;98971.22;;;27.11;54.24
77526;BME280;66627;29.424;-98.496;2023-08-08T10:51:33;98967.33;;;27.23;53.99
77526;BME280;66627;29.424;-98.496;2023-08-08T10:53:52;98963.73;;;27.40;53.73
77526;BME280;66627;29.424;-98.496;2023-08-08T10:56:18;98957.13;;;27.43;53.64
77526;BME280;66627;29.424;-98.496;2023-08-08T10:58:48;98952.55;;;27.06;54.58
77526;BME280;66627;29.424;-98.496;2023-08-08T11:01:08;98952.00;;;26.91;54.78
77526;BME280;66627;29.424;-98.496;2023-08-08T11:03:34;98951.93;;;27.99;52.59
77526;BME280;66627;29.424;-98.496;2023-08-08T11:06:00;98952.33;;;26.91;54.79
77526;BME280;66627;29.424;-98.496;2023-08-08T11:08:24;98955.76;;;27.05;54.57
77526;BME280;66627;29.424;-98.496;2023-08-08T11:10:52;98965.45;;;27.32;54.17
77526;BME280;66627;29.424;-98.496;2023-08-08T11:13:15;98974.69;;;27.45;53.95
77526;BME280;66627;29.424;-98.496;2023-08-08T11:15:41;98977.28;;;27.23;54.58
77526;BME280;66627;29.424;-98.496;2023-08-08T11:18:06;98978.98;;;27.05;55.32
77526;BME280;66627;29.424;-98.496;2023-08-08T11:20:32;98975.98;;;28.14;52.67
77526;BME280;66627;29.424;-98.496;2023-08-08T11:23:03;98976.59;;;28.30;53.26
77526;BME280;66627;29.424;-98.496;2023-08-08T11:25:25;98972.77;;;28.15;52.58
77526;BME280;66627;29.424;-98.496;2023-08-08T11:27:52;98971.65;;;27.57;53.35
77526;BME280;66627;29.424;-98.496;2023-08-08T11:30:14;98968.15;;;27.72;53.85
77526;BME280;66627;29.424;-98.496;2023-08-08T11:32:48;98965.24;;;28.09;53.50
77526;BME280;66627;29.424;-98.496;2023-08-08T11:35:04;98964.95;;;27.88;54.43
77526;BME280;66627;29.424;-98.496;2023-08-08T11:37:29;98966.07;;;27.32;55.35
77526;BME280;66627;29.424;-98.496;2023-08-08T11:39:55;98970.56;;;27.36;55.67
77526;BME280;66627;29.424;-98.496;2023-08-08T11:42:20;98979.37;;;26.74;56.69
77526;BME280;66627;29.424;-98.496;2023-08-08T11:44:45;98978.27;;;27.77;55.46
77526;BME280;66627;29.424;-98.496;2023-08-08T11:47:11;98988.97;;;27.41;55.67
77526;BME280;66627;29.424;-98.496;2023-08-08T11:49:40;98992.87;;;28.01;53.99
77526;BME280;66627;29.424;-98.496;2023-08-08T11:52:01;98990.10;;;27.10;55.98
77526;BME280;66627;29.424;-98.496;2023-08-08T11:54:28;98982.55;;;26.75;56.97
77526;BME280;66627;29.424;-98.496;2023-08-08T11:56:52;98980.34;;;27.22;56.60
77526;BME280;66627;29.424;-98.496;2023-08-08T11:59:19;98977.87;;;27.13;56.71
77526;BME280;66627;29.424;-98.496;2023-08-08T12:01:43;98979.78;;;27.41;56.28
77526;BME280;66627;29.424;-98.496;2023-08-08T12:04:09;98981.91;;;28.37;53.83
77526;BME280;66627;29.424;-98.496;2023-08-08T12:06:37;98984.87;;;26.91;56.99
77526;BME280;66627;29.424;-98.496;2023-08-08T12:09:02;98979.91;;;27.12;57.05
77526;BME280;66627;29.424;-98.496;2023-08-08T12:11:25;98979.79;;;26.99;56.30
77526;BME280;66627;29.424;-98.496;2023-08-08T12:13:50;98981.78;;;26.77;57.82
77526;BME280;66627;29.424;-98.496;2023-08-08T12:16:15;98993.01;;;26.99;58.00
77526;BME280;66627;29.424;-98.496;2023-08-08T12:18:41;98996.74;;;27.21;57.62
77526;BME280;66627;29.424;-98.496;2023-08-08T12:21:06;99000.22;;;27.13;57.19
77526;BME280;66627;29.424;-98.496;2023-08-08T12:23:32;99002.67;;;26.90;57.88
77526;BME280;66627;29.424;-98.496;2023-08-08T12:25:58;99002.11;;;27.22;57.66
77526;BME280;66627;29.424;-98.496;2023-08-08T12:28:23;99001.08;;;28.13;55.84
77526;BME280;66627;29.424;-98.496;2023-08-08T12:30:48;99005.29;;;27.05;58.24